Provisional Data: Sangerfield River near Poolville, NY


Please select a monitoring station.
Please select start date.
Please select start date.

Toggle Unit: C/F Toggle Unit: C/F
Sample Time Temperature (C) Temperature (F) Specific Conductivity (mS/cm) pH   Turbidity (NTU+) DO (mg/L)
9/25/2021 12:00:00 AM 15.75 60.35 0.345 7.94 8.42 8.51
9/25/2021 12:15:00 AM 15.68 60.224 0.346 7.94 8.95 8.53
9/25/2021 12:30:00 AM 15.62 60.116 0.346 7.93 8.31 8.53
9/25/2021 12:45:00 AM 15.55 59.99 0.346 7.93 8.74 8.54
9/25/2021 1:00:00 AM 15.49 59.882 0.346 7.93 8.74 8.55
9/25/2021 1:15:00 AM 15.43 59.774 0.346 7.93 9.06 8.56
9/25/2021 1:30:00 AM 15.36 59.648 0.346 7.93 9.86 8.57
9/25/2021 1:45:00 AM 15.3 59.54 0.346 7.92 9.22 8.57
9/25/2021 2:00:00 AM 15.23 59.414 0.345 7.92 8.94 8.59
9/25/2021 2:15:00 AM 15.17 59.306 0.345 7.92 9.78 8.6
9/25/2021 2:30:00 AM 15.1 59.18 0.344 7.92 8.65 8.61
9/25/2021 2:45:00 AM 15.03 59.054 0.344 7.92 9.84 8.62
9/25/2021 3:00:00 AM 14.97 58.946 0.343 7.91 8.96 8.63
9/25/2021 3:15:00 AM 14.91 58.838 0.342 7.91 9.63 8.65
9/25/2021 3:30:00 AM 14.85 58.73 0.342 7.91 9.7 8.66
9/25/2021 3:45:00 AM 14.79 58.622 0.341 7.86 9.5 8.66
9/25/2021 4:00:00 AM 14.73 58.514 0.341 7.87 9.4 8.68
9/25/2021 4:15:00 AM 14.67 58.406 0.34 7.88 9.17 8.7
9/25/2021 4:30:00 AM 14.61 58.298 0.34 7.89 9.49 8.71
9/25/2021 4:45:00 AM 14.56 58.208 0.339 7.89 11.02 8.71
9/25/2021 5:00:00 AM 14.51 58.118 0.339 7.89 9.74 8.73
9/25/2021 5:15:00 AM 14.45 58.01 0.339 7.89 10.36 8.74
9/25/2021 5:30:00 AM 14.4 57.92 0.338 7.89 11.4 8.75
9/25/2021 5:45:00 AM 14.35 57.83 0.338 7.89 8.87 8.77
9/25/2021 6:00:00 AM 14.3 57.74 0.338 7.89 8.78 8.78
9/25/2021 6:15:00 AM 14.25 57.65 0.338 7.89 8.75 8.79
9/25/2021 6:30:00 AM 14.21 57.578 0.338 7.89 8.78 8.8
9/25/2021 6:45:00 AM 14.16 57.488 0.338 7.89 8.39 8.82
9/25/2021 7:00:00 AM 14.12 57.416 0.338 7.89 8.41 8.82
9/25/2021 7:15:00 AM 14.09 57.362 0.338 7.89 8.3 8.85
9/25/2021 7:30:00 AM 14.06 57.308 0.338 7.9 8.25 8.88
9/25/2021 7:45:00 AM 14.04 57.272 0.338 7.9 7.3 8.93
9/25/2021 8:00:00 AM 14.02 57.236 0.339 7.91 6.74 8.99
9/25/2021 8:15:00 AM 14.01 57.218 0.339 7.92 7.19 9.07
9/25/2021 8:30:00 AM 14 57.2 0.339 7.93 6.38 9.14
9/25/2021 8:45:00 AM 13.99 57.182 0.339 7.95 6.96 9.22
9/25/2021 9:00:00 AM 13.99 57.182 0.339 7.96 6.1 9.3
9/25/2021 9:15:00 AM 13.99 57.182 0.339 7.97 5.81 9.4
9/25/2021 9:30:00 AM 14.02 57.236 0.339 8 5.5 9.55
9/25/2021 9:45:00 AM 14.06 57.308 0.339 8.02 5.71 9.69
9/25/2021 10:00:00 AM 14.12 57.416 0.339 8.04 5.21 9.81
9/25/2021 10:15:00 AM 14.19 57.542 0.339 8.06 5.07 9.91
9/25/2021 10:30:00 AM 14.26 57.668 0.339 8.08 4.82 9.99
9/25/2021 10:45:00 AM 14.33 57.794 0.338 8.1 4.7 10.04
9/25/2021 11:00:00 AM 14.41 57.938 0.338 8.11 4.98 10.1
9/25/2021 11:15:00 AM 14.52 58.136 0.338 8.13 5.21 10.18
9/25/2021 11:30:00 AM 14.64 58.352 0.338 8.15 4.83 10.27
9/25/2021 11:45:00 AM 14.78 58.604 0.337 8.17 4.42 10.36
9/25/2021 12:00:00 PM 14.95 58.91 0.337 8.19 4.5 10.46
9/25/2021 12:15:00 PM 15.12 59.216 0.336 8.22 4.74 10.56
9/25/2021 12:30:00 PM 15.32 59.576 0.336 8.25 4.49 10.69
9/25/2021 12:45:00 PM 15.52 59.936 0.335 8.28 4.61 10.81
9/25/2021 1:00:00 PM 15.72 60.296 0.335 8.31 4.77 10.91
9/25/2021 1:15:00 PM 15.92 60.656 0.334 8.34 4.53 11.01
9/25/2021 1:30:00 PM 16.09 60.962 0.334 8.36 4.44 11.06
9/25/2021 1:45:00 PM 16.24 61.232 0.333 8.39 4.51 11.13
9/25/2021 2:00:00 PM 16.43 61.574 0.332 8.41 4.56 11.21
9/25/2021 2:15:00 PM 16.61 61.898 0.332 8.44 4.53 11.26
9/25/2021 2:30:00 PM 16.74 62.132 0.331 8.45 4.51 11.3
9/25/2021 2:45:00 PM 16.85 62.33 0.331 8.47 4.7 11.28
9/25/2021 3:00:00 PM 16.95 62.51 0.331 8.48 4.6 11.27
9/25/2021 3:15:00 PM 17.02 62.636 0.33 8.49 4.6 11.27
9/25/2021 3:30:00 PM 17.1 62.78 0.33 8.51 4.76 11.28
9/25/2021 3:45:00 PM 17.18 62.924 0.329 8.52 4.33 11.25
9/25/2021 4:00:00 PM 17.23 63.014 0.329 8.52 4.37 11.2
9/25/2021 4:15:00 PM 17.27 63.086 0.329 8.52 4.36 11.1
9/25/2021 4:30:00 PM 17.3 63.14 0.329 8.51 4.58 11
9/25/2021 4:45:00 PM 17.34 63.212 0.329 8.51 4.44 10.9
9/25/2021 5:00:00 PM 17.33 63.194 0.329 8.5 4.52 10.8
9/25/2021 5:15:00 PM 17.3 63.14 0.329 8.48 4.44 10.61
9/25/2021 5:30:00 PM 17.25 63.05 0.329 8.45 4.61 10.45
9/25/2021 5:45:00 PM 17.2 62.96 0.329 8.42 4.49 10.24
9/25/2021 6:00:00 PM 17.14 62.852 0.329 8.39 4.46 10.05
9/25/2021 6:15:00 PM 17.08 62.744 0.33 8.35 4.55 9.86
9/25/2021 6:30:00 PM 17.02 62.636 0.33 8.32 4.31 9.69
9/25/2021 6:45:00 PM 16.96 62.528 0.33 8.28 4.64 9.53
9/25/2021 7:00:00 PM 16.89 62.402 0.33 8.25 4.75 9.39
9/25/2021 7:15:00 PM 16.81 62.258 0.33 8.22 5.18 9.26
9/25/2021 7:30:00 PM 16.73 62.114 0.331 8.19 4.94 9.15
9/25/2021 7:45:00 PM 16.65 61.97 0.331 8.16 5.11 9.05
9/25/2021 8:00:00 PM 16.57 61.826 0.331 8.14 5.4 8.96
9/25/2021 8:15:00 PM 16.49 61.682 0.331 8.12 5.05 8.89
9/25/2021 8:30:00 PM 16.42 61.556 0.331 8.09 4.98 8.84
9/25/2021 8:45:00 PM 16.34 61.412 0.331 8.08 5.04 8.79
9/25/2021 9:00:00 PM 16.28 61.304 0.332 8.06 5.23 8.74
9/25/2021 9:15:00 PM 16.21 61.178 0.332 8.05 5.23 8.7
9/25/2021 9:30:00 PM 16.15 61.07 0.332 8.03 5.3 8.67
9/25/2021 9:45:00 PM 16.09 60.962 0.332 8.02 5.24 8.64
9/25/2021 10:00:00 PM 16.03 60.854 0.332 8.01 5.19 8.61
9/25/2021 10:15:00 PM 15.97 60.746 0.332 8 5.28 8.59
9/25/2021 10:30:00 PM 15.9 60.62 0.332 7.99 5.12 8.58
9/25/2021 10:45:00 PM 15.84 60.512 0.332 7.99 5.02 8.57
9/25/2021 11:00:00 PM 15.79 60.422 0.332 7.98 5.04 8.56
9/25/2021 11:15:00 PM 15.75 60.35 0.332 7.97 5.14 8.55
9/25/2021 11:30:00 PM 15.71 60.278 0.332 7.97 5.04 8.55
9/25/2021 11:45:00 PM 15.67 60.206 0.332 7.97 4.66 8.55
9/26/2021 12:00:00 AM 15.62 60.116 0.332 7.96 4.76 8.54
9/26/2021 12:15:00 AM 15.58 60.044 0.332 7.96 5.01 8.55
9/26/2021 12:30:00 AM 15.54 59.972 0.333 7.95 4.86 8.54
9/26/2021 12:45:00 AM 15.49 59.882 0.333 7.95 4.95 8.55
9/26/2021 1:00:00 AM 15.44 59.792 0.333 7.95 4.93 8.55
9/26/2021 1:15:00 AM 15.39 59.702 0.333 7.95 4.9 8.56
9/26/2021 1:30:00 AM 15.35 59.63 0.333 7.95 4.87 8.57
9/26/2021 1:45:00 AM 15.31 59.558 0.333 7.95 4.73 8.58
9/26/2021 2:00:00 AM 15.28 59.504 0.333 7.95 4.98 8.58
9/26/2021 2:15:00 AM 15.25 59.45 0.333 7.95 5.06 8.59
9/26/2021 2:30:00 AM 15.22 59.396 0.333 7.94 5.05 8.59
9/26/2021 2:45:00 AM 15.18 59.324 0.333 7.94 5.35 8.6
9/26/2021 3:00:00 AM 15.14 59.252 0.333 7.95 4.75 8.61
9/26/2021 3:15:00 AM 15.1 59.18 0.333 7.95 4.99 8.63
9/26/2021 3:30:00 AM 15.06 59.108 0.333 7.95 4.9 8.63
9/26/2021 3:45:00 AM 15.03 59.054 0.333 7.94 4.66 8.63
9/26/2021 4:00:00 AM 14.99 58.982 0.333 7.94 15.35 8.63
9/26/2021 4:15:00 AM 14.94 58.892 0.333 7.95 4.83 8.65
9/26/2021 4:30:00 AM 14.9 58.82 0.333 7.95 4.96 8.66
9/26/2021 4:45:00 AM 14.86 58.748 0.334 7.94 4.83 8.67
9/26/2021 5:00:00 AM 14.82 58.676 0.334 7.95 4.71 8.69
9/26/2021 5:15:00 AM 14.78 58.604 0.334 7.95 4.87 8.7
9/26/2021 5:30:00 AM 14.74 58.532 0.334 7.94 4.8 8.7
9/26/2021 5:45:00 AM 14.71 58.478 0.334 7.94 4.69 8.71
9/26/2021 6:00:00 AM 14.67 58.406 0.334 7.95 4.84 8.72
9/26/2021 6:15:00 AM 14.63 58.334 0.334 7.95 5.24 8.73
9/26/2021 6:30:00 AM 14.58 58.244 0.334 7.94 4.81 8.73
9/26/2021 6:45:00 AM 14.52 58.136 0.335 7.95 4.83 8.73
9/26/2021 7:00:00 AM 14.46 58.028 0.335 7.95 4.74 8.75
9/26/2021 7:15:00 AM 14.41 57.938 0.335 7.95 4.57 8.79
9/26/2021 7:30:00 AM 14.35 57.83 0.335 7.96 4.28 8.83
9/26/2021 7:45:00 AM 14.31 57.758 0.335 7.96 4.43 8.9
9/26/2021 8:00:00 AM 14.29 57.722 0.335 7.97 4.3 8.98
9/26/2021 8:15:00 AM 14.27 57.686 0.335 7.99 4.11 9.09
9/26/2021 8:30:00 AM 14.24 57.632 0.335 8 4 9.16
9/26/2021 8:45:00 AM 14.22 57.596 0.335 8.01 3.82 9.23
9/26/2021 9:00:00 AM 14.21 57.578 0.335 8.03 3.9 9.35
9/26/2021 9:15:00 AM 14.2 57.56 0.335 8.05 3.66 9.45
9/26/2021 9:30:00 AM 14.21 57.578 0.335 8.06 3.56 9.56
9/26/2021 9:45:00 AM 14.23 57.614 0.335 8.08 3.53 9.67
9/26/2021 10:00:00 AM 14.26 57.668 0.334 8.1 3.45 9.78
9/26/2021 10:15:00 AM 14.29 57.722 0.334 8.12 3.43 9.89
9/26/2021 10:30:00 AM 14.33 57.794 0.334 8.14 3.28 10
9/26/2021 10:45:00 AM 14.4 57.92 0.334 8.17 3.26 10.16
9/26/2021 11:00:00 AM 14.49 58.082 0.334 8.2 3.28 10.34
9/26/2021 11:15:00 AM 14.62 58.316 0.333 8.24 3.23 10.55
9/26/2021 11:30:00 AM 14.74 58.532 0.333 8.27 3.16 10.71
9/26/2021 11:45:00 AM 14.88 58.784 0.333 8.32 3.14 10.91
9/26/2021 12:00:00 PM 15.02 59.036 0.332 8.35 3.13 11.07
9/26/2021 12:15:00 PM 15.09 59.162 0.332 8.38 3.16 11.11
9/26/2021 12:30:00 PM 15.23 59.414 0.332 8.4 3.11 11.16
9/26/2021 12:45:00 PM 15.3 59.54 0.332 8.43 6.23 11.26
9/26/2021 1:00:00 PM 15.49 59.882 0.332 8.45 3.15 11.37
9/26/2021 1:15:00 PM 15.67 60.206 0.331 8.49 3.03 11.5
9/26/2021 1:30:00 PM 15.87 60.566 0.331 8.52 3.01 11.67
9/26/2021 1:45:00 PM 16.02 60.836 0.331 8.55 3 11.72
9/26/2021 2:00:00 PM 16.11 60.998 0.33 8.57 2.96 11.73
9/26/2021 2:15:00 PM 16.21 61.178 0.33 8.57 2.93 11.65
9/26/2021 2:30:00 PM 16.36 61.448 0.33 8.61 3.01 11.84
9/26/2021 2:45:00 PM 16.39 61.502 0.33 8.62 3.02 11.72
9/26/2021 3:00:00 PM 16.43 61.574 0.33 8.62 2.94 11.6
9/26/2021 3:15:00 PM 16.43 61.574 0.33 8.62 2.97 11.43
9/26/2021 3:30:00 PM 16.54 61.772 0.33 8.63 2.92 11.45
9/26/2021 3:45:00 PM 16.57 61.826 0.33 8.65 3.15 11.44
9/26/2021 4:00:00 PM 16.63 61.934 0.33 8.64 3.11 11.32
9/26/2021 4:15:00 PM 16.65 61.97 0.33 8.65 3.17 11.34
9/26/2021 4:30:00 PM 16.67 62.006 0.33 8.65 3.17 11.26
9/26/2021 4:45:00 PM 16.68 62.024 0.331 8.64 3.11 11.1
9/26/2021 5:00:00 PM 16.71 62.078 0.331 8.64 3.21 11.05
9/26/2021 5:15:00 PM 16.71 62.078 0.331 8.64 3.19 10.92
9/26/2021 5:30:00 PM 16.68 62.024 0.331 8.62 3.24 10.75
9/26/2021 5:45:00 PM 16.63 61.934 0.332 8.59 3.2 10.52
9/26/2021 6:00:00 PM 16.57 61.826 0.333 8.56 3.19 10.32
9/26/2021 6:15:00 PM 16.49 61.682 0.334 8.53 3.22 10.1
9/26/2021 6:30:00 PM 16.37 61.466 0.335 8.48 3.23 9.87
9/26/2021 6:45:00 PM 16.26 61.268 0.336 8.44 3.3 9.68
9/26/2021 7:00:00 PM 16.17 61.106 0.337 8.4 3.37 9.53
9/26/2021 7:15:00 PM 16.1 60.98 0.337 8.37 3 9.41
9/26/2021 7:30:00 PM 16.04 60.872 0.338 8.34 3.17 9.31
9/26/2021 7:45:00 PM 15.98 60.764 0.338 8.31 3.33 9.23
9/26/2021 8:00:00 PM 15.91 60.638 0.339 8.29 3.26 9.15
9/26/2021 8:15:00 PM 15.85 60.53 0.339 8.26 3.27 9.09
9/26/2021 8:30:00 PM 15.78 60.404 0.34 8.24 3.32 9.04
9/26/2021 8:45:00 PM 15.71 60.278 0.34 8.22 3.49 9
9/26/2021 9:00:00 PM 15.65 60.17 0.341 8.19 3.33 8.95
9/26/2021 9:15:00 PM 15.58 60.044 0.341 8.17 3.4 8.91
9/26/2021 9:30:00 PM 15.5 59.9 0.342 8.15 3.36 8.88
9/26/2021 9:45:00 PM 15.42 59.756 0.342 8.13 3.3 8.85
9/26/2021 10:00:00 PM 15.35 59.63 0.343 8.12 3.29 8.83
9/26/2021 10:15:00 PM 15.26 59.468 0.343 8.1 3.4 8.81
9/26/2021 10:30:00 PM 15.17 59.306 0.344 8.09 3.44 8.79
9/26/2021 10:45:00 PM 15.1 59.18 0.344 8.08 3.37 8.78
9/26/2021 11:00:00 PM 15.03 59.054 0.344 8.07 3.57 8.77
9/26/2021 11:15:00 PM 14.94 58.892 0.345 8.05 5.17 8.77
9/26/2021 11:30:00 PM 14.87 58.766 0.345 8.05 3.66 8.77
9/26/2021 11:45:00 PM 14.79 58.622 0.345 8.04 3.55 8.77
9/27/2021 12:00:00 AM 14.71 58.478 0.346 8.04 3.64 8.77
9/27/2021 12:15:00 AM 14.64 58.352 0.346 8.03 3.69 8.78
9/27/2021 12:30:00 AM 14.57 58.226 0.346 8.03 3.92 8.78
9/27/2021 12:45:00 AM 14.5 58.1 0.346 8.02 3.79 8.8
9/27/2021 1:00:00 AM 14.42 57.956 0.347 8.02 3.71 8.81
9/27/2021 1:15:00 AM 14.37 57.866 0.347 8.01 3.84 8.81
9/27/2021 1:30:00 AM 14.32 57.776 0.347 8.01 4.02 8.81
9/27/2021 1:45:00 AM 14.28 57.704 0.347 8.01 3.71 8.83
9/27/2021 2:00:00 AM 14.24 57.632 0.348 8 3.68 8.82
9/27/2021 2:15:00 AM 14.2 57.56 0.348 8 3.92 8.84
9/27/2021 2:30:00 AM 14.17 57.506 0.348 8 3.83 8.84
9/27/2021 2:45:00 AM 14.14 57.452 0.348 8 3.66 8.85
9/27/2021 3:00:00 AM 14.12 57.416 0.349 8 3.7 8.86
9/27/2021 3:15:00 AM 14.09 57.362 0.349 7.99 5.29 8.86
9/27/2021 3:30:00 AM 14.07 57.326 0.349 7.99 4.25 8.86
9/27/2021 3:45:00 AM 14.06 57.308 0.349 7.99 4.25 8.85
9/27/2021 4:00:00 AM 14.04 57.272 0.349 7.99 3.87 8.86
9/27/2021 4:15:00 AM 14.02 57.236 0.35 7.99 3.76 8.87
9/27/2021 4:30:00 AM 14 57.2 0.35 7.99 3.79 8.86
9/27/2021 4:45:00 AM 13.99 57.182 0.35 7.99 3.73 8.88
9/27/2021 5:00:00 AM 13.97 57.146 0.35 7.99 3.87 8.86
9/27/2021 5:15:00 AM 13.96 57.128 0.35 7.99 3.95 8.88
9/27/2021 5:30:00 AM 13.94 57.092 0.351 7.99 3.9 8.88
9/27/2021 5:45:00 AM 13.93 57.074 0.351 7.99 3.45 8.89
9/27/2021 6:00:00 AM 13.92 57.056 0.351 7.99 3.67 8.89
9/27/2021 6:15:00 AM 13.91 57.038 0.351 7.99 3.56 8.88
9/27/2021 6:30:00 AM 13.9 57.02 0.352 7.99 3.57 8.89
9/27/2021 6:45:00 AM 13.89 57.002 0.352 7.99 3.59 8.9
9/27/2021 7:00:00 AM 13.89 57.002 0.352 7.99 3.44 8.89
9/27/2021 7:15:00 AM 13.88 56.984 0.352 7.99 3.36 8.92
9/27/2021 7:30:00 AM 13.88 56.984 0.353 8 3.47 8.94
9/27/2021 7:45:00 AM 13.88 56.984 0.353 8 3.33 8.98
9/27/2021 8:00:00 AM 13.88 56.984 0.353 8.01 3.22 9.06
9/27/2021 8:15:00 AM 13.88 56.984 0.353 8.02 3.47 9.08
9/27/2021 8:30:00 AM 13.86 56.948 0.352 8.02 3.5 9.07
9/27/2021 8:45:00 AM 13.85 56.93 0.351 8.02 3.15 9.08
9/27/2021 9:00:00 AM 13.84 56.912 0.351 8.03 3.97 9.13
9/27/2021 9:15:00 AM 13.83 56.894 0.35 8.03 3.48 9.17
9/27/2021 9:30:00 AM 13.83 56.894 0.35 8.04 3.41 9.24
9/27/2021 9:45:00 AM 13.84 56.912 0.35 8.06 3.39 9.34
9/27/2021 10:00:00 AM 13.88 56.984 0.35 8.09 3.4 9.57
9/27/2021 10:15:00 AM 13.96 57.128 0.349 8.14 3.48 9.93
9/27/2021 10:30:00 AM 14.05 57.29 0.349 8.19 3.53 10.24
9/27/2021 10:45:00 AM 14.11 57.398 0.349 8.23 3.31 10.52
9/27/2021 11:00:00 AM 14.21 57.578 0.349 8.27 3.21 10.76
9/27/2021 11:15:00 AM 14.38 57.884 0.349 8.33 3.26 11.07
9/27/2021 11:30:00 AM 14.54 58.172 0.349 8.38 4.23 11.32
9/27/2021 11:45:00 AM 14.67 58.406 0.348 8.41 4.05 11.48
9/27/2021 12:00:00 PM 14.81 58.658 0.348 8.45 3.29 11.6
9/27/2021 12:15:00 PM 14.94 58.892 0.348 8.47 3.14 11.69
9/27/2021 12:30:00 PM 15.08 59.144 0.348 8.49 3.07 11.73
9/27/2021 12:45:00 PM 15.22 59.396 0.348 8.51 3.05 11.79
9/27/2021 1:00:00 PM 15.33 59.594 0.348 8.53 2.96 11.87
9/27/2021 1:15:00 PM 15.46 59.828 0.347 8.55 3.06 11.95
9/27/2021 1:30:00 PM 15.58 60.044 0.347 8.58 2.97 12.02
9/27/2021 1:45:00 PM 15.76 60.368 0.346 8.61 3.1 12.15
9/27/2021 2:00:00 PM 15.9 60.62 0.346 8.63 2.98 12.24
9/27/2021 2:15:00 PM 16.14 61.052 0.345 8.67 2.97 12.4
9/27/2021 2:30:00 PM 16.33 61.394 0.344 8.7 2.96 12.5
9/27/2021 2:45:00 PM 16.48 61.664 0.344 8.73 3.07 12.52
9/27/2021 3:00:00 PM 16.59 61.862 0.343 8.75 2.99 12.49
9/27/2021 3:15:00 PM 16.7 62.06 0.343 8.77 3.07 12.46
9/27/2021 3:30:00 PM 16.79 62.222 0.342 8.78 3.02 12.36
9/27/2021 3:45:00 PM 16.92 62.456 0.342 8.79 3.14 12.34
9/27/2021 4:00:00 PM 16.99 62.582 0.342 8.8 3.13 12.24
9/27/2021 4:15:00 PM 17.04 62.672 0.342 8.8 3.04 12.06
9/27/2021 4:30:00 PM 17.09 62.762 0.342 8.81 2.97 11.95
9/27/2021 4:45:00 PM 17.14 62.852 0.342 8.81 3.04 11.81
9/27/2021 5:00:00 PM 17.17 62.906 0.342 8.8 3.06 11.67
9/27/2021 5:15:00 PM 17.18 62.924 0.342 8.79 3.02 11.44
9/27/2021 5:30:00 PM 17.17 62.906 0.343 8.77 2.98 11.19
9/27/2021 5:45:00 PM 17.15 62.87 0.343 8.75 3.18 10.98
9/27/2021 6:00:00 PM 17.12 62.816 0.344 8.73 3.18 10.74
9/27/2021 6:15:00 PM 17.09 62.762 0.345 8.7 3.43 10.52
9/27/2021 6:30:00 PM 17.04 62.672 0.345 8.67 3.08 10.25
9/27/2021 6:45:00 PM 16.99 62.582 0.346 8.63 3.37 10
9/27/2021 7:00:00 PM 16.95 62.51 0.347 8.6 3.33 9.78
9/27/2021 7:15:00 PM 16.9 62.42 0.348 8.56 6.91 9.57
9/27/2021 7:30:00 PM 16.86 62.348 0.349 8.53 3.11 9.42
9/27/2021 7:45:00 PM 16.82 62.276 0.349 8.49 3.15 9.28
9/27/2021 8:00:00 PM 16.78 62.204 0.35 8.45 3.14 9.16
9/27/2021 8:15:00 PM 16.75 62.15 0.351 8.42 3.07 9.06
9/27/2021 8:30:00 PM 16.71 62.078 0.352 8.38 3.19 8.96
9/27/2021 8:45:00 PM 16.68 62.024 0.353 8.35 3.12 8.9
9/27/2021 9:00:00 PM 16.65 61.97 0.353 8.32 3 8.83
9/27/2021 9:15:00 PM 16.62 61.916 0.354 8.29 4.69 8.76
9/27/2021 9:30:00 PM 16.58 61.844 0.355 8.26 3.33 8.72
9/27/2021 9:45:00 PM 16.55 61.79 0.355 8.23 3.1 8.67
9/27/2021 10:00:00 PM 16.52 61.736 0.356 8.21 3.25 8.62
9/27/2021 10:15:00 PM 16.48 61.664 0.357 8.18 3.14 8.58
9/27/2021 10:30:00 PM 16.45 61.61 0.357 8.16 3.51 8.54
9/27/2021 10:45:00 PM 16.42 61.556 0.358 8.14 3.2 8.51
9/27/2021 11:00:00 PM 16.38 61.484 0.358 8.12 3.07 8.49
9/27/2021 11:15:00 PM 16.35 61.43 0.358 8.1 3.61 8.47
9/27/2021 11:30:00 PM 16.32 61.376 0.359 8.09 3.21 8.43
9/27/2021 11:45:00 PM 16.29 61.322 0.359 8.08 3.2 8.42
9/28/2021 12:00:00 AM 16.26 61.268 0.359 8.07 3.29 8.41
9/28/2021 12:15:00 AM 16.23 61.214 0.359 8.06 3.15 8.41
9/28/2021 12:30:00 AM 16.2 61.16 0.359 8.04 3.27 8.38
9/28/2021 12:45:00 AM 16.18 61.124 0.36 8.04 5.08 8.37
9/28/2021 1:00:00 AM 16.15 61.07 0.36 8.03 3.54 8.36
9/28/2021 1:15:00 AM 16.13 61.034 0.36 8.02 3.49 8.37
9/28/2021 1:30:00 AM 16.1 60.98 0.36 8.02 3.28 8.37
9/28/2021 1:45:00 AM 16.08 60.944 0.36 8.01 3.24 8.37
9/28/2021 2:00:00 AM 16.06 60.908 0.36 8.01 3.24 8.36
9/28/2021 2:15:00 AM 16.04 60.872 0.361 8 3.48 8.36
9/28/2021 2:30:00 AM 16.02 60.836 0.361 8 3.32 8.36
9/28/2021 2:45:00 AM 15.99 60.782 0.361 8 3.48 8.36
9/28/2021 3:00:00 AM 15.97 60.746 0.361 8 3.66 8.37
9/28/2021 3:15:00 AM 15.95 60.71 0.361 7.99 3.32 8.37
9/28/2021 3:30:00 AM 15.93 60.674 0.361 7.99 3.34 8.37
9/28/2021 3:45:00 AM 15.91 60.638 0.362 7.99 3.31 8.37
9/28/2021 4:00:00 AM 15.89 60.602 0.361 7.98 6.5 8.36
9/28/2021 4:15:00 AM 15.86 60.548 0.362 7.99 3.14 8.38
9/28/2021 4:30:00 AM 15.84 60.512 0.362 7.98 3.29 8.38
9/28/2021 4:45:00 AM 15.82 60.476 0.362 7.98 3.28 8.38
9/28/2021 5:00:00 AM 15.8 60.44 0.363 7.98 3.54 8.38
9/28/2021 5:15:00 AM 15.77 60.386 0.363 7.98 3.25 8.38
9/28/2021 5:30:00 AM 15.74 60.332 0.363 7.98 3.47 8.39
9/28/2021 5:45:00 AM 15.72 60.296 0.364 7.98 2.93 8.38
9/28/2021 6:00:00 AM 15.7 60.26 0.364 7.98 3.46 8.39
9/28/2021 6:15:00 AM 15.66 60.188 0.364 7.98 3.1 8.39
9/28/2021 6:30:00 AM 15.63 60.134 0.364 7.97 3.42 8.41
9/28/2021 6:45:00 AM 15.59 60.062 0.365 7.97 3.25 8.41
9/28/2021 7:00:00 AM 15.56 60.008 0.365 7.97 3.29 8.42
9/28/2021 7:15:00 AM 15.54 59.972 0.365 7.98 3.33 8.45
9/28/2021 7:30:00 AM 15.52 59.936 0.365 7.98 3.25 8.48
9/28/2021 7:45:00 AM 15.51 59.918 0.366 7.99 3.14 8.53
9/28/2021 8:00:00 AM 15.5 59.9 0.366 7.99 3.15 8.57
9/28/2021 8:15:00 AM 15.5 59.9 0.366 8 3.01 8.67
9/28/2021 8:30:00 AM 15.51 59.918 0.366 8.02 3.11 8.82
9/28/2021 8:45:00 AM 15.53 59.954 0.366 8.04 2.93 8.96
9/28/2021 9:00:00 AM 15.54 59.972 0.367 8.05 2.95 8.99
9/28/2021 9:15:00 AM 15.56 60.008 0.367 8.06 3.01 9.05
9/28/2021 9:30:00 AM 15.57 60.026 0.367 8.08 2.89 9.17
9/28/2021 9:45:00 AM 15.57 60.026 0.367 8.09 2.95 9.19
9/28/2021 10:00:00 AM 15.56 60.008 0.367 8.09 2.92 9.19
9/28/2021 10:15:00 AM 15.55 59.99 0.368 8.1 2.98 9.21
9/28/2021 10:30:00 AM 15.54 59.972 0.368 8.11 2.87 9.25
9/28/2021 10:45:00 AM 15.53 59.954 0.368 8.11 2.96 9.28
9/28/2021 11:00:00 AM 15.52 59.936 0.368 8.13 2.84 9.38
9/28/2021 11:15:00 AM 15.51 59.918 0.368 8.14 2.73 9.47
9/28/2021 11:30:00 AM 15.52 59.936 0.368 8.17 2.82 9.63
9/28/2021 11:45:00 AM 15.56 60.008 0.368 8.21 2.8 9.92
9/28/2021 12:00:00 PM 15.62 60.116 0.367 8.26 2.84 10.29
9/28/2021 12:15:00 PM 15.75 60.35 0.366 8.33 2.76 10.75
9/28/2021 12:30:00 PM 15.93 60.674 0.365 8.4 2.79 11.19
9/28/2021 12:45:00 PM 16.04 60.872 0.364 8.46 2.65 11.54
9/28/2021 1:00:00 PM 16.1 60.98 0.364 8.5 2.75 11.72
9/28/2021 1:15:00 PM 16.17 61.106 0.363 8.54 2.74 11.87
9/28/2021 1:30:00 PM 16.26 61.268 0.362 8.57 2.74 12.03
9/28/2021 1:45:00 PM 16.37 61.466 0.362 8.6 2.69 12.16
9/28/2021 2:00:00 PM 16.59 61.862 0.361 8.63 2.75 12.3
9/28/2021 2:15:00 PM 16.77 62.186 0.36 8.65 2.93 12.36
9/28/2021 2:30:00 PM 16.89 62.402 0.36 8.67 2.56 12.36
9/28/2021 2:45:00 PM 16.94 62.492 0.36 8.67 2.78 12.25
9/28/2021 3:00:00 PM 16.97 62.546 0.36 8.68 2.73 12.16
9/28/2021 3:15:00 PM 16.97 62.546 0.36 8.68 2.77 12.05
9/28/2021 3:30:00 PM 16.97 62.546 0.36 8.68 2.8 11.93
9/28/2021 3:45:00 PM 16.98 62.564 0.36 8.69 2.79 11.84
9/28/2021 4:00:00 PM 16.97 62.546 0.36 8.69 2.82 11.75
9/28/2021 4:15:00 PM 16.93 62.474 0.36 8.69 2.8 11.62
9/28/2021 4:30:00 PM 16.92 62.456 0.36 8.7 2.8 11.57
9/28/2021 4:45:00 PM 16.9 62.42 0.36 8.72 2.78 11.6
9/28/2021 5:00:00 PM 16.87 62.366 0.36 8.72 3.02 11.47
9/28/2021 5:15:00 PM 16.8 62.24 0.36 8.71 2.83 11.26
9/28/2021 5:30:00 PM 16.7 62.06 0.361 8.7 2.78 11.05
9/28/2021 5:45:00 PM 16.58 61.844 0.361 8.68 2.84 10.8
9/28/2021 6:00:00 PM 16.49 61.682 0.362 8.66 2.82 10.6
9/28/2021 6:15:00 PM 16.42 61.556 0.362 8.65 2.89 10.45
9/28/2021 6:30:00 PM 16.34 61.412 0.363 8.63 3.27 10.22
9/28/2021 6:45:00 PM 16.25 61.25 0.364 8.59 2.82 9.95
9/28/2021 7:00:00 PM 16.15 61.07 0.365 8.56 2.98 9.74
9/28/2021 7:15:00 PM 16.06 60.908 0.366 8.53 3.37 9.49
9/28/2021 7:30:00 PM 15.98 60.764 0.367 8.51 3.03 9.48
9/28/2021 7:45:00 PM 15.89 60.602 0.367 8.48 3.34 9.37
9/28/2021 8:00:00 PM 15.8 60.44 0.368 8.46 3.04 9.28
9/28/2021 8:15:00 PM 15.71 60.278 0.369 8.43 2.97 9.2
9/28/2021 8:30:00 PM 15.62 60.116 0.369 8.4 3.14 9.14
9/28/2021 8:45:00 PM 15.54 59.972 0.37 8.38 3.35 9.08
9/28/2021 9:00:00 PM 15.47 59.846 0.371 8.35 3.32 9.04
9/28/2021 9:15:00 PM 15.39 59.702 0.371 8.32 3.1 9
9/28/2021 9:30:00 PM 15.3 59.54 0.372 8.3 3.1 8.97
9/28/2021 9:45:00 PM 15.23 59.414 0.373 8.27 3.05 8.94
9/28/2021 10:00:00 PM 15.14 59.252 0.373 8.25 3.22 8.91
9/28/2021 10:15:00 PM 15.06 59.108 0.374 8.23 3.26 8.89
9/28/2021 10:30:00 PM 14.98 58.964 0.374 8.21 2.96 8.87
9/28/2021 10:45:00 PM 14.89 58.802 0.374 8.19 3.06 8.85
9/28/2021 11:00:00 PM 14.8 58.64 0.375 8.18 3.23 8.83
9/28/2021 11:15:00 PM 14.71 58.478 0.375 8.16 3.11 8.83
9/28/2021 11:30:00 PM 14.61 58.298 0.375 8.15 3.01 8.83
9/28/2021 11:45:00 PM 14.53 58.154 0.376 8.14 3.21 8.82
9/29/2021 12:00:00 AM 14.43 57.974 0.376 8.13 3.24 8.83
9/29/2021 12:15:00 AM 14.33 57.794 0.376 8.12 3.08 8.84
9/29/2021 12:30:00 AM 14.24 57.632 0.376 8.11 3.17 8.85
9/29/2021 12:45:00 AM 14.15 57.47 0.377 8.1 3.15 8.86
9/29/2021 1:00:00 AM 14.06 57.308 0.377 8.1 3.16 8.87
9/29/2021 1:15:00 AM 13.98 57.164 0.377 8.09 3.3 8.88
9/29/2021 1:30:00 AM 13.89 57.002 0.377 8.08 3.17 8.88
9/29/2021 1:45:00 AM 13.8 56.84 0.377 8.08 5.47 8.9
9/29/2021 2:00:00 AM 13.72 56.696 0.378 8.08 3.69 8.92
9/29/2021 2:15:00 AM 13.63 56.534 0.378 8.07 3.09 8.94
9/29/2021 2:30:00 AM 13.56 56.408 0.378 8.07 12.66 8.95
9/29/2021 2:45:00 AM 13.48 56.264 0.378 8.06 3.43 8.96
9/29/2021 3:00:00 AM 13.41 56.138 0.378 8.06 3.37 8.98
9/29/2021 3:15:00 AM 13.36 56.048 0.378 8.06 3.08 9
9/29/2021 3:30:00 AM 13.3 55.94 0.378 8.06 3.23 9.01
9/29/2021 3:45:00 AM 13.25 55.85 0.379 8.05 3.31 9.02
9/29/2021 4:00:00 AM 13.2 55.76 0.379 8.05 3.06 9.03
9/29/2021 4:15:00 AM 13.16 55.688 0.379 8.05 4.43 9.02
9/29/2021 4:30:00 AM 13.1 55.58 0.379 8.05 3.66 9.05
9/29/2021 4:45:00 AM 13.04 55.472 0.379 8.05 5.35 9.07
9/29/2021 5:00:00 AM 12.97 55.346 0.379 8.05 3.28 9.09
9/29/2021 5:15:00 AM 12.9 55.22 0.379 8.04 3.5 9.11
9/29/2021 5:30:00 AM 12.84 55.112 0.379 8.04 3.41 9.11
9/29/2021 5:45:00 AM 12.77 54.986 0.379 8.04 3.48 9.14
9/29/2021 6:00:00 AM 12.7 54.86 0.379 8.04 3.39 9.15
9/29/2021 6:15:00 AM 12.64 54.752 0.38 8.04 3.4 9.17
9/29/2021 6:30:00 AM 12.57 54.626 0.38 8.04 3.5 9.17
9/29/2021 6:45:00 AM 12.5 54.5 0.38 8.04 3.53 9.19
9/29/2021 7:00:00 AM 12.43 54.374 0.38 8.04 3.57 9.22
9/29/2021 7:15:00 AM 12.38 54.284 0.38 8.05 3.48 9.27
9/29/2021 7:30:00 AM 12.32 54.176 0.38 8.05 3.34 9.34
9/29/2021 7:45:00 AM 12.27 54.086 0.38 8.06 3.35 9.45
9/29/2021 8:00:00 AM 12.22 53.996 0.38 8.07 3.2 9.54
9/29/2021 8:15:00 AM 12.2 53.96 0.38 8.04 3.2 9.68
9/29/2021 8:30:00 AM 12.17 53.906 0.38 8.06 3.07 9.82
9/29/2021 8:45:00 AM 12.16 53.888 0.38 8.09 3.09 9.98
9/29/2021 9:00:00 AM 12.15 53.87 0.38 8.12 2.87 10.07
9/29/2021 9:15:00 AM 12.17 53.906 0.379 8.14 2.88 10.17
9/29/2021 9:30:00 AM 12.22 53.996 0.379 8.16 2.84 10.29
9/29/2021 9:45:00 AM 12.28 54.104 0.379 8.18 2.8 10.42
9/29/2021 10:00:00 AM 12.34 54.212 0.379 8.21 2.84 10.52
9/29/2021 10:15:00 AM 12.39 54.302 0.379 8.23 2.79 10.66
9/29/2021 10:30:00 AM 12.45 54.41 0.379 8.25 2.79 10.76
9/29/2021 10:45:00 AM 12.52 54.536 0.379 8.27 2.72 10.87
9/29/2021 11:00:00 AM 12.62 54.716 0.378 8.29 2.8 10.99
9/29/2021 11:15:00 AM 12.73 54.914 0.378 8.31 2.74 11.1
9/29/2021 11:30:00 AM 12.84 55.112 0.377 8.34 2.77 11.26
9/29/2021 11:45:00 AM 12.97 55.346 0.377 8.37 2.67 11.43
9/29/2021 12:00:00 PM 13.12 55.616 0.376 8.4 2.78 11.6
9/29/2021 12:15:00 PM 13.29 55.922 0.376 8.43 2.73 11.73
9/29/2021 12:30:00 PM 13.45 56.21 0.375 8.47 2.7 11.91
9/29/2021 12:45:00 PM 13.58 56.444 0.374 8.5 2.7 12.11
9/29/2021 1:00:00 PM 13.72 56.696 0.373 8.54 2.64 12.3
9/29/2021 1:15:00 PM 13.82 56.876 0.372 8.57 2.81 12.4
9/29/2021 1:30:00 PM 13.89 57.002 0.371 8.6 2.61 12.39
9/29/2021 1:45:00 PM 13.91 57.038 0.371 8.59 2.65 12.17
9/29/2021 2:00:00 PM 13.98 57.164 0.371 8.59 2.67 11.98
9/29/2021 2:15:00 PM 14.13 57.434 0.37 8.62 2.63 12.09
9/29/2021 2:30:00 PM 14.23 57.614 0.369 8.66 2.84 12.2
9/29/2021 2:45:00 PM 14.3 57.74 0.369 8.68 2.7 12.22
9/29/2021 3:00:00 PM 14.33 57.794 0.369 8.67 2.9 11.99
9/29/2021 3:15:00 PM 14.42 57.956 0.369 8.68 2.62 11.98
9/29/2021 3:30:00 PM 14.47 58.046 0.368 8.69 2.62 11.95
9/29/2021 3:45:00 PM 14.52 58.136 0.368 8.69 2.68 11.84
9/29/2021 4:00:00 PM 14.56 58.208 0.368 8.69 2.62 11.67
9/29/2021 4:15:00 PM 14.58 58.244 0.368 8.68 2.64 11.43
9/29/2021 4:30:00 PM 14.63 58.334 0.368 8.68 2.82 11.42
9/29/2021 4:45:00 PM 14.64 58.352 0.368 8.68 2.75 11.32
9/29/2021 5:00:00 PM 14.67 58.406 0.368 8.68 2.78 11.3
9/29/2021 5:15:00 PM 14.68 58.424 0.368 8.68 2.8 11.3
9/29/2021 5:30:00 PM 14.66 58.388 0.368 8.68 2.81 11.25
9/29/2021 5:45:00 PM 14.63 58.334 0.369 8.67 2.91 11.11
9/29/2021 6:00:00 PM 14.59 58.262 0.369 8.65 2.7 10.99
9/29/2021 6:15:00 PM 14.55 58.19 0.369 8.64 2.86 10.84
9/29/2021 6:30:00 PM 14.51 58.118 0.37 8.62 2.81 10.65
9/29/2021 6:45:00 PM 14.47 58.046 0.37 8.59 2.75 10.45
9/29/2021 7:00:00 PM 14.42 57.956 0.371 8.56 2.78 10.25
9/29/2021 7:15:00 PM 14.36 57.848 0.372 8.53 2.86 10.08
9/29/2021 7:30:00 PM 14.29 57.722 0.373 8.49 3.4 9.92
9/29/2021 7:45:00 PM 14.23 57.614 0.373 8.46 3.32 9.78
9/29/2021 8:00:00 PM 14.18 57.524 0.374 8.43 3.45 9.67
9/29/2021 8:15:00 PM 14.13 57.434 0.375 8.4 5.73 9.58
9/29/2021 8:30:00 PM 14.09 57.362 0.375 8.37 2.89 9.51
9/29/2021 8:45:00 PM 14.04 57.272 0.376 8.35 2.74 9.47
9/29/2021 9:00:00 PM 14.01 57.218 0.376 8.33 2.84 9.41
9/29/2021 9:15:00 PM 13.98 57.164 0.377 8.31 2.73 9.37
9/29/2021 9:30:00 PM 13.95 57.11 0.377 8.29 2.88 9.34
9/29/2021 9:45:00 PM 13.92 57.056 0.378 8.27 2.8 9.31
9/29/2021 10:00:00 PM 13.89 57.002 0.378 8.26 3.08 9.28
9/29/2021 10:15:00 PM 13.86 56.948 0.379 8.24 6.41 9.25
9/29/2021 10:30:00 PM 13.83 56.894 0.379 8.23 2.83 9.23
9/29/2021 10:45:00 PM 13.8 56.84 0.379 8.22 2.94 9.21
9/29/2021 11:00:00 PM 13.77 56.786 0.38 8.2 4.41 9.19
9/29/2021 11:15:00 PM 13.74 56.732 0.38 8.19 2.71 9.17
9/29/2021 11:30:00 PM 13.71 56.678 0.38 8.18 2.67 9.16
9/29/2021 11:45:00 PM 13.66 56.588 0.381 8.17 2.79 9.14
9/30/2021 12:00:00 AM 13.61 56.498 0.381 8.16 2.63 9.13
9/30/2021 12:15:00 AM 13.55 56.39 0.381 8.15 2.7 9.13
9/30/2021 12:30:00 AM 13.49 56.282 0.381 8.14 2.67 9.12
9/30/2021 12:45:00 AM 13.43 56.174 0.382 8.13 2.77 9.12
9/30/2021 1:00:00 AM 13.37 56.066 0.382 8.13 2.84 9.13
9/30/2021 1:15:00 AM 13.32 55.976 0.382 8.12 2.97 9.13
9/30/2021 1:30:00 AM 13.27 55.886 0.382 8.11 2.85 9.13
9/30/2021 1:45:00 AM 13.23 55.814 0.382 8.11 2.85 9.14
9/30/2021 2:00:00 AM 13.19 55.742 0.382 8.1 2.84 9.14
9/30/2021 2:15:00 AM 13.15 55.67 0.383 8.1 3.05 9.15
9/30/2021 2:30:00 AM 13.11 55.598 0.383 8.1 3.06 9.16
9/30/2021 2:45:00 AM 13.06 55.508 0.383 8.09 2.96 9.16
9/30/2021 3:00:00 AM 13.02 55.436 0.383 8.09 2.96 9.16
9/30/2021 3:15:00 AM 13 55.4 0.383 8.09 2.95 9.17
9/30/2021 3:30:00 AM 12.97 55.346 0.383 8.08 2.83 9.16
9/30/2021 3:45:00 AM 12.95 55.31 0.383 8.08 2.93 9.18
9/30/2021 4:00:00 AM 12.93 55.274 0.383 8.08 2.82 9.17
9/30/2021 4:15:00 AM 12.9 55.22 0.383 8.08 2.91 9.18
9/30/2021 4:30:00 AM 12.87 55.166 0.383 8.07 2.97 9.18
9/30/2021 4:45:00 AM 12.84 55.112 0.383 8.07 3.11 9.18
9/30/2021 5:00:00 AM 12.81 55.058 0.384 8.07 2.9 9.18
9/30/2021 5:15:00 AM 12.79 55.022 0.384 8.07 2.8 9.19
9/30/2021 5:30:00 AM 12.77 54.986 0.384 8.07 2.88 9.2
9/30/2021 5:45:00 AM 12.74 54.932 0.384 8.07 3.06 9.21
9/30/2021 6:00:00 AM 12.72 54.896 0.384 8.06 2.99 9.2
9/30/2021 6:15:00 AM 12.69 54.842 0.384 8.06 3.31 9.21
9/30/2021 6:30:00 AM 12.65 54.77 0.384 8.06 3.18 9.22
9/30/2021 6:45:00 AM 12.61 54.698 0.384 8.06 4.44 9.24
9/30/2021 7:00:00 AM 12.57 54.626 0.385 8.06 3.32 9.26
9/30/2021 7:15:00 AM 12.52 54.536 0.385 8.06 2.96 9.28
9/30/2021 7:30:00 AM 12.48 54.464 0.385 8.07 3.06 9.34
9/30/2021 7:45:00 AM 12.48 54.464 0.385 8.08 3.03 9.44
9/30/2021 8:00:00 AM 12.45 54.41 0.385 8.09 2.96 9.52
9/30/2021 8:15:00 AM 12.43 54.374 0.385 8.1 2.92 9.62
9/30/2021 8:30:00 AM 12.42 54.356 0.385 8.12 2.8 9.73
9/30/2021 8:45:00 AM 12.45 54.41 0.385 8.14 2.86 9.93
9/30/2021 9:00:00 AM 12.46 54.428 0.384 8.17 2.75 10.13
9/30/2021 9:15:00 AM 12.48 54.464 0.384 8.19 2.77 10.28
9/30/2021 9:30:00 AM 12.51 54.518 0.384 8.22 2.68 10.45
9/30/2021 9:45:00 AM 12.57 54.626 0.384 8.25 2.73 10.66
9/30/2021 10:00:00 AM 12.65 54.77 0.383 8.29 2.76 10.94
9/30/2021 10:15:00 AM 12.76 54.968 0.383 8.33 2.83 11.19
9/30/2021 10:30:00 AM 12.81 55.058 0.382 8.37 3.07 11.43
9/30/2021 10:45:00 AM 12.9 55.22 0.382 8.4 2.75 11.59
9/30/2021 11:00:00 AM 13.04 55.472 0.381 8.44 2.8 11.85
9/30/2021 11:15:00 AM 13.2 55.76 0.38 8.48 2.76 12.09
9/30/2021 11:30:00 AM 13.2 55.76 0.38 8.5 2.66 12.19
9/30/2021 11:45:00 AM 13.24 55.832 0.38 8.52 2.75 12.22
9/30/2021 12:00:00 PM 13.29 55.922 0.379 8.54 2.7 12.31
9/30/2021 12:15:00 PM 13.49 56.282 0.379 8.57 2.68 12.47
9/30/2021 12:30:00 PM 13.52 56.336 0.378 8.58 2.59 12.46
9/30/2021 12:45:00 PM 13.55 56.39 0.378 8.59 2.69 12.49
9/30/2021 1:00:00 PM 13.62 56.516 0.378 8.61 2.58 12.51
9/30/2021 1:15:00 PM 13.69 56.642 0.377 8.63 2.73 12.63
9/30/2021 1:30:00 PM 13.67 56.606 0.377 8.64 2.58 12.58
9/30/2021 1:45:00 PM 13.75 56.75 0.376 8.65 2.6 12.64
9/30/2021 2:00:00 PM 13.8 56.84 0.376 8.68 2.56 12.74
9/30/2021 2:15:00 PM 13.85 56.93 0.375 8.7 2.57 12.79
9/30/2021 2:30:00 PM 13.93 57.074 0.374 8.71 2.59 12.83
9/30/2021 2:45:00 PM 13.98 57.164 0.374 8.73 2.84 12.83
9/30/2021 3:00:00 PM 14.05 57.29 0.373 8.74 3.06 12.88
9/30/2021 3:15:00 PM 14.09 57.362 0.373 8.76 2.55 12.86
9/30/2021 3:30:00 PM 14.11 57.398 0.372 8.77 2.99 12.82
9/30/2021 3:45:00 PM 14.14 57.452 0.372 8.77 2.6 12.75
9/30/2021 4:00:00 PM 14.15 57.47 0.372 8.78 2.92 12.68
9/30/2021 4:15:00 PM 14.12 57.416 0.372 8.77 2.74 12.43
9/30/2021 4:30:00 PM 14.11 57.398 0.372 8.76 2.68 12.21
9/30/2021 4:45:00 PM 14.12 57.416 0.372 8.76 2.76 12.08
9/30/2021 5:00:00 PM 14.11 57.398 0.372 8.76 2.75 11.98
9/30/2021 5:15:00 PM 14.08 57.344 0.373 8.74 2.86 11.71
9/30/2021 5:30:00 PM 14.05 57.29 0.374 8.71 2.78 11.35
9/30/2021 5:45:00 PM 14.03 57.254 0.374 8.7 2.73 11.25
9/30/2021 6:00:00 PM 14 57.2 0.374 8.69 2.78 11.12
9/30/2021 6:15:00 PM 13.96 57.128 0.375 8.67 2.66 10.92
9/30/2021 6:30:00 PM 13.91 57.038 0.376 8.65 2.67 10.71
9/30/2021 6:45:00 PM 13.88 56.984 0.377 8.62 2.72 10.53
9/30/2021 7:00:00 PM 13.84 56.912 0.377 8.6 2.62 10.36
9/30/2021 7:15:00 PM 13.81 56.858 0.378 8.58 5.29 10.22
9/30/2021 7:30:00 PM 13.75 56.75 0.378 8.55 2.76 10.09
9/30/2021 7:45:00 PM 13.69 56.642 0.379 8.53 2.83 9.97
9/30/2021 8:00:00 PM 13.62 56.516 0.379 8.51 2.73 9.87
9/30/2021 8:15:00 PM 13.55 56.39 0.38 8.48 2.81 9.8
9/30/2021 8:30:00 PM 13.47 56.246 0.381 8.46 2.83 9.73
9/30/2021 8:45:00 PM 13.39 56.102 0.381 8.44 2.76 9.68
9/30/2021 9:00:00 PM 13.3 55.94 0.381 8.41 2.71 9.64
9/30/2021 9:15:00 PM 13.22 55.796 0.382 8.39 2.72 9.61
9/30/2021 9:30:00 PM 13.14 55.652 0.382 8.37 2.82 9.59
9/30/2021 9:45:00 PM 13.05 55.49 0.383 8.35 2.95 9.56
9/30/2021 10:00:00 PM 12.96 55.328 0.383 8.33 2.76 9.54
9/30/2021 10:15:00 PM 12.87 55.166 0.384 8.31 2.89 9.53
9/30/2021 10:30:00 PM 12.78 55.004 0.384 8.3 2.82 9.51
9/30/2021 10:45:00 PM 12.7 54.86 0.385 8.28 2.9 9.51
9/30/2021 11:00:00 PM 12.61 54.698 0.385 8.26 3 9.5
9/30/2021 11:15:00 PM 12.53 54.554 0.386 8.24 2.89 9.49
9/30/2021 11:30:00 PM 12.45 54.41 0.386 8.23 3.05 9.49
9/30/2021 11:45:00 PM 12.37 54.266 0.387 8.21 3.03 9.48
10/1/2021 12:00:00 AM 12.29 54.122 0.387 8.2 2.99 9.48
10/1/2021 12:15:00 AM 12.21 53.978 0.387 8.19 2.86 9.47
10/1/2021 12:30:00 AM 12.13 53.834 0.388 8.18 2.91 9.48
10/1/2021 12:45:00 AM 12.05 53.69 0.388 8.16 3.16 9.49
10/1/2021 1:00:00 AM 11.98 53.564 0.388 8.16 3.75 9.49
10/1/2021 1:15:00 AM 11.92 53.456 0.389 8.14 2.77 9.48
10/1/2021 1:30:00 AM 11.85 53.33 0.389 8.13 2.78 9.51
10/1/2021 1:45:00 AM 11.78 53.204 0.389 8.07 2.65 9.53
10/1/2021 2:00:00 AM 11.69 53.042 0.389 8.08 2.83 9.53
10/1/2021 2:15:00 AM 11.61 52.898 0.39 8.09 2.9 9.54
10/1/2021 2:30:00 AM 11.54 52.772 0.39 8.08 2.67 9.56
10/1/2021 2:45:00 AM 11.47 52.646 0.39 8.08 2.64 9.57
10/1/2021 3:00:00 AM 11.4 52.52 0.39 8.08 2.64 9.59
10/1/2021 3:15:00 AM 11.32 52.376 0.39 8.08 2.49 9.61
10/1/2021 3:30:00 AM 11.26 52.268 0.39 8.08 2.81 9.62
10/1/2021 3:45:00 AM 11.19 52.142 0.39 8.07 2.62 9.62
10/1/2021 4:00:00 AM 11.13 52.034 0.39 8.07 9.71 9.64
10/1/2021 4:15:00 AM 11.07 51.926 0.39 8.07 4.49 9.65
10/1/2021 4:30:00 AM 11.02 51.836 0.39 8.07 3.63 9.67
10/1/2021 4:45:00 AM 10.96 51.728 0.39 8.07 2.89 9.68
10/1/2021 5:00:00 AM 10.91 51.638 0.391 8.06 2.51 9.7
10/1/2021 5:15:00 AM 10.87 51.566 0.391 8.06 2.51 9.71
10/1/2021 5:30:00 AM -99999.99 -179968 -99999.99 -99999.99 -99999.99 -99999.99
10/1/2021 5:45:00 AM -99999.99 -179968 -99999.99 -99999.99 -99999.99 -99999.99
10/1/2021 6:00:00 AM 10.77 51.386 0.391 8.06 2.55 9.75
10/1/2021 6:15:00 AM 10.75 51.35 0.391 8.06 2.57 9.75
10/1/2021 6:30:00 AM 10.72 51.296 0.391 8.07 2.51 9.75
10/1/2021 6:45:00 AM 10.68 51.224 0.391 8.07 2.53 9.76
10/1/2021 7:00:00 AM 10.64 51.152 0.391 8.07 2.77 9.78
10/1/2021 7:15:00 AM 10.6 51.08 0.391 8.06 2.55 9.8
10/1/2021 7:30:00 AM 10.57 51.026 0.391 8.07 2.51 9.86
10/1/2021 7:45:00 AM 10.55 50.99 0.391 8.08 2.58 9.97
10/1/2021 8:00:00 AM 10.53 50.954 0.391 8.09 2.54 10.09
10/1/2021 8:15:00 AM 10.51 50.918 0.391 8.11 2.56 10.23
10/1/2021 8:30:00 AM 10.51 50.918 0.391 8.13 2.61 10.41
10/1/2021 8:45:00 AM 10.52 50.936 0.391 8.16 2.48 10.59
10/1/2021 9:00:00 AM 10.52 50.936 0.391 8.18 2.51 10.71
10/1/2021 9:15:00 AM 10.56 51.008 0.39 8.21 2.43 10.91
10/1/2021 9:30:00 AM 10.62 51.116 0.39 8.24 2.53 11.1
10/1/2021 9:45:00 AM 10.69 51.242 0.39 8.27 2.49 11.27
10/1/2021 10:00:00 AM 10.72 51.296 0.39 8.29 2.38 11.39
10/1/2021 10:15:00 AM 10.81 51.458 0.389 8.31 2.4 11.51
10/1/2021 10:30:00 AM 10.85 51.53 0.389 8.34 2.38 11.65
10/1/2021 10:45:00 AM 10.89 51.602 0.389 8.36 2.42 11.76
10/1/2021 11:00:00 AM 10.94 51.692 0.389 8.37 2.44 11.83
10/1/2021 11:15:00 AM 11.04 51.872 0.388 8.39 2.4 11.95
10/1/2021 11:30:00 AM 11.18 52.124 0.387 8.42 2.39 12.13
10/1/2021 11:45:00 AM 11.29 52.322 0.387 8.45 2.41 12.26
10/1/2021 12:00:00 PM 11.4 52.52 0.386 8.47 2.34 12.31
10/1/2021 12:15:00 PM 11.57 52.826 0.385 8.5 2.35 12.42
10/1/2021 12:30:00 PM 11.78 53.204 0.384 8.54 2.3 12.68
10/1/2021 12:45:00 PM 11.95 53.51 0.383 8.57 2.3 12.81
10/1/2021 1:00:00 PM 12.16 53.888 0.382 8.6 2.31 12.93
10/1/2021 1:15:00 PM 12.44 54.392 0.381 8.63 2.23 13.12
10/1/2021 1:30:00 PM 12.52 54.536 0.381 8.66 2.32 13.17
10/1/2021 1:45:00 PM 12.62 54.716 0.38 8.67 2.28 13.19
10/1/2021 2:00:00 PM 12.7 54.86 0.38 8.69 2.27 13.14
10/1/2021 2:15:00 PM 12.79 55.022 0.379 8.7 2.2 13.15
10/1/2021 2:30:00 PM 12.85 55.13 0.379 8.72 2.47 13.18
10/1/2021 2:45:00 PM 12.93 55.274 0.378 8.73 2.27 13.15
10/1/2021 3:00:00 PM 12.98 55.364 0.378 8.74 2.22 13.1
10/1/2021 3:15:00 PM 13.09 55.562 0.377 8.75 2.23 13.1
10/1/2021 3:30:00 PM 13.28 55.904 0.377 8.76 2.26 13.11
10/1/2021 3:45:00 PM 13.35 56.03 0.376 8.77 2.19 13.16
10/1/2021 4:00:00 PM 13.37 56.066 0.376 8.77 2.18 12.97
10/1/2021 4:15:00 PM 13.39 56.102 0.376 8.76 2.31 12.81
10/1/2021 4:30:00 PM 13.42 56.156 0.376 8.76 2.33 12.71
10/1/2021 4:45:00 PM 13.47 56.246 0.376 8.77 2.23 12.68
10/1/2021 5:00:00 PM 13.51 56.318 0.376 8.77 2.26 12.6
10/1/2021 5:15:00 PM 13.52 56.336 0.376 8.77 2.44 12.42
10/1/2021 5:30:00 PM 13.49 56.282 0.377 8.75 2.26 12.13
10/1/2021 5:45:00 PM 13.46 56.228 0.377 8.73 2.35 11.85
10/1/2021 6:00:00 PM 13.41 56.138 0.378 8.72 2.26 11.61
10/1/2021 6:15:00 PM 13.36 56.048 0.379 8.7 2.35 11.39
10/1/2021 6:30:00 PM 13.28 55.904 0.379 8.67 2.31 11.14
10/1/2021 6:45:00 PM 13.18 55.724 0.38 8.64 2.33 10.9
10/1/2021 7:00:00 PM 13.07 55.526 0.381 8.61 2.46 10.58
10/1/2021 7:15:00 PM 12.96 55.328 0.382 8.58 4.15 10.48
10/1/2021 7:30:00 PM 12.86 55.148 0.383 8.55 2.43 10.35
10/1/2021 7:45:00 PM 12.79 55.022 0.384 8.53 2.61 10.22
10/1/2021 8:00:00 PM 12.71 54.878 0.384 8.5 2.41 10.13
10/1/2021 8:15:00 PM 12.64 54.752 0.385 8.48 2.46 10.05
10/1/2021 8:30:00 PM 12.58 54.644 0.385 8.46 2.47 9.98
10/1/2021 8:45:00 PM 12.51 54.518 0.385 8.44 2.54 9.94
10/1/2021 9:00:00 PM 12.44 54.392 0.386 8.43 2.5 9.9
10/1/2021 9:15:00 PM 12.37 54.266 0.386 8.41 2.5 9.85
10/1/2021 9:30:00 PM 12.3 54.14 0.386 8.39 2.54 9.84
10/1/2021 9:45:00 PM 12.22 53.996 0.387 8.38 2.5 9.81
10/1/2021 10:00:00 PM 12.15 53.87 0.387 8.36 2.51 9.8
10/1/2021 10:15:00 PM 12.07 53.726 0.387 8.34 2.64 9.78
10/1/2021 10:30:00 PM 11.99 53.582 0.388 8.32 2.61 9.77
10/1/2021 10:45:00 PM 11.9 53.42 0.388 8.3 2.56 9.75
10/1/2021 11:00:00 PM 11.82 53.276 0.388 8.29 2.65 9.73
10/1/2021 11:15:00 PM 11.74 53.132 0.389 8.27 2.63 9.73
10/1/2021 11:30:00 PM 11.66 52.988 0.389 8.25 2.54 9.73
10/1/2021 11:45:00 PM 11.58 52.844 0.389 8.23 2.54 9.74
10/2/2021 12:00:00 AM 11.49 52.682 0.39 8.22 2.65 9.72
10/2/2021 12:15:00 AM 11.42 52.556 0.39 8.21 2.54 9.72
10/2/2021 12:30:00 AM 11.35 52.43 0.39 8.19 2.55 9.72
10/2/2021 12:45:00 AM 11.28 52.304 0.39 8.18 2.53 9.72
10/2/2021 1:00:00 AM 11.21 52.178 0.391 8.17 2.65 9.72
10/2/2021 1:15:00 AM 11.14 52.052 0.391 8.16 2.54 9.73
10/2/2021 1:30:00 AM 11.07 51.926 0.391 8.15 3.2 9.73
10/2/2021 1:45:00 AM 11.01 51.818 0.392 8.14 2.51 9.74
10/2/2021 2:00:00 AM 10.95 51.71 0.392 8.14 2.59 9.74
10/2/2021 2:15:00 AM 10.89 51.602 0.392 8.13 2.56 9.76
10/2/2021 2:30:00 AM 10.83 51.494 0.392 8.12 2.69 9.77
10/2/2021 2:45:00 AM 10.77 51.386 0.392 8.12 2.59 9.77
10/2/2021 3:00:00 AM 10.73 51.314 0.393 8.11 2.62 9.78
10/2/2021 3:15:00 AM 10.68 51.224 0.393 8.11 2.65 9.79
10/2/2021 3:30:00 AM 10.65 51.17 0.393 8.11 2.6 9.8
10/2/2021 3:45:00 AM 10.62 51.116 0.393 8.1 2.58 9.81
10/2/2021 4:00:00 AM 10.59 51.062 0.393 8.1 2.61 9.81
10/2/2021 4:15:00 AM 10.57 51.026 0.393 8.1 2.49 9.82
10/2/2021 4:30:00 AM 10.55 50.99 0.394 8.1 2.57 9.84
10/2/2021 4:45:00 AM 10.53 50.954 0.394 8.09 2.47 9.84
10/2/2021 5:00:00 AM 10.5 50.9 0.394 8.09 2.47 9.83
10/2/2021 5:15:00 AM 10.48 50.864 0.394 8.09 2.75 9.84
10/2/2021 5:30:00 AM 10.46 50.828 0.394 8.09 2.62 9.84
10/2/2021 5:45:00 AM 10.43 50.774 0.394 8.08 2.74 9.85
10/2/2021 6:00:00 AM 10.41 50.738 0.394 8.08 2.58 9.85
10/2/2021 6:15:00 AM 10.39 50.702 0.394 8.08 2.64 9.85
10/2/2021 6:30:00 AM 10.38 50.684 0.394 8.08 2.77 9.86
10/2/2021 6:45:00 AM 10.36 50.648 0.395 8.07 2.75 9.86
10/2/2021 7:00:00 AM 10.34 50.612 0.395 8.07 4.55 9.87
10/2/2021 7:15:00 AM 10.32 50.576 0.395 8.07 2.66 9.89
10/2/2021 7:30:00 AM 10.3 50.54 0.395 8.08 4.37 9.92
10/2/2021 7:45:00 AM 10.28 50.504 0.395 8.08 2.54 9.99
10/2/2021 8:00:00 AM 10.28 50.504 0.395 8.1 2.61 10.11
10/2/2021 8:15:00 AM 10.29 50.522 0.395 8.11 2.36 10.23
10/2/2021 8:30:00 AM 10.31 50.558 0.394 8.13 2.49 10.39
10/2/2021 8:45:00 AM 10.37 50.666 0.394 8.16 2.4 10.61
10/2/2021 9:00:00 AM 10.43 50.774 0.394 8.19 2.5 10.84
10/2/2021 9:15:00 AM 10.5 50.9 0.394 8.23 2.42 11.02
10/2/2021 9:30:00 AM 10.58 51.044 0.393 8.25 2.39 11.2
10/2/2021 9:45:00 AM 10.63 51.134 0.393 8.27 2.44 11.31
10/2/2021 10:00:00 AM 10.7 51.26 0.393 8.29 2.38 11.43
10/2/2021 10:15:00 AM 10.8 51.44 0.392 8.32 2.5 11.62
10/2/2021 10:30:00 AM 10.96 51.728 0.392 8.36 2.42 11.87
10/2/2021 10:45:00 AM 11.11 51.998 0.391 8.4 2.38 12.07
10/2/2021 11:00:00 AM 11.3 52.34 0.39 8.43 2.42 12.21
10/2/2021 11:15:00 AM 11.47 52.646 0.39 8.46 2.48 12.35
10/2/2021 11:30:00 AM 11.64 52.952 0.389 8.48 2.5 12.49
10/2/2021 11:45:00 AM 11.76 53.168 0.389 8.5 2.46 12.59
10/2/2021 12:00:00 PM 11.97 53.546 0.388 8.52 2.42 12.64
10/2/2021 12:15:00 PM 12.18 53.924 0.388 8.54 2.44 12.71
10/2/2021 12:30:00 PM 12.32 54.176 0.387 8.56 2.41 12.79
10/2/2021 12:45:00 PM 12.37 54.266 0.387 8.57 2.4 12.76
10/2/2021 1:00:00 PM 12.59 54.662 0.387 8.58 2.41 12.76
10/2/2021 1:15:00 PM 12.87 55.166 0.386 8.6 2.29 12.85
10/2/2021 1:30:00 PM 13.11 55.598 0.385 8.62 2.34 12.94
10/2/2021 1:45:00 PM 13.34 56.012 0.385 8.64 2.29 12.98
10/2/2021 2:00:00 PM 13.57 56.426 0.384 8.65 2.23 12.98
10/2/2021 2:15:00 PM 13.78 56.804 0.384 8.67 2.23 12.97
10/2/2021 2:30:00 PM 13.98 57.164 0.383 8.68 2.21 12.93
10/2/2021 2:45:00 PM 14.16 57.488 0.383 8.68 2.25 12.88
10/2/2021 3:00:00 PM 14.3 57.74 0.382 8.69 2.18 12.8
10/2/2021 3:15:00 PM 14.41 57.938 0.382 8.7 2.2 12.73
10/2/2021 3:30:00 PM 14.55 58.19 0.382 8.7 5.78 12.65
10/2/2021 3:45:00 PM 14.66 58.388 0.383 8.71 2.26 12.59
10/2/2021 4:00:00 PM 14.76 58.568 0.382 8.72 2.31 12.48
10/2/2021 4:15:00 PM 14.85 58.73 0.382 8.72 3.11 12.35
10/2/2021 4:30:00 PM 14.93 58.874 0.382 8.72 2.39 12.22
10/2/2021 4:45:00 PM 14.99 58.982 0.382 8.72 13.87 12.04
10/2/2021 5:00:00 PM 15.05 59.09 0.382 8.72 5.14 11.88
10/2/2021 5:15:00 PM 15.09 59.162 0.382 8.71 2.36 11.67
10/2/2021 5:30:00 PM 15.12 59.216 0.382 8.7 2.27 11.48
10/2/2021 5:45:00 PM 15.12 59.216 0.383 8.69 2.39 11.28
10/2/2021 6:00:00 PM 15.09 59.162 0.383 8.67 2.58 11.03
10/2/2021 6:15:00 PM 15.05 59.09 0.384 8.65 2.31 10.79
10/2/2021 6:30:00 PM 15 59 0.385 8.63 2.57 10.56
10/2/2021 6:45:00 PM 14.94 58.892 0.385 8.6 2.43 10.31
10/2/2021 7:00:00 PM 14.86 58.748 0.386 8.57 4.96 10.06
10/2/2021 7:15:00 PM 14.77 58.586 0.387 8.53 5.28 9.86
10/2/2021 7:30:00 PM 14.7 58.46 0.388 8.51 2.46 9.71
10/2/2021 7:45:00 PM 14.65 58.37 0.389 8.49 2.49 9.58
10/2/2021 8:00:00 PM 14.6 58.28 0.389 8.46 2.54 9.48
10/2/2021 8:15:00 PM 14.56 58.208 0.39 8.44 2.49 9.39
10/2/2021 8:30:00 PM 14.52 58.136 0.39 8.42 2.54 9.32
10/2/2021 8:45:00 PM 14.47 58.046 0.39 8.4 2.6 9.26
10/2/2021 9:00:00 PM 14.43 57.974 0.391 8.39 2.6 9.22
10/2/2021 9:15:00 PM 14.37 57.866 0.391 8.37 2.58 9.18
10/2/2021 9:30:00 PM 14.32 57.776 0.391 8.35 2.55 9.15
10/2/2021 9:45:00 PM 14.25 57.65 0.392 8.34 2.61 9.13
10/2/2021 10:00:00 PM 14.18 57.524 0.392 8.32 2.56 9.12
10/2/2021 10:15:00 PM 14.11 57.398 0.393 8.3 2.66 9.1
10/2/2021 10:30:00 PM 14.04 57.272 0.393 8.29 2.52 9.09
10/2/2021 10:45:00 PM 13.97 57.146 0.394 8.27 2.57 9.07
10/2/2021 11:00:00 PM 13.9 57.02 0.394 8.25 2.51 9.06
10/2/2021 11:15:00 PM 13.83 56.894 0.395 8.23 2.67 9.06
10/2/2021 11:30:00 PM 13.75 56.75 0.395 8.22 2.56 9.05
10/2/2021 11:45:00 PM 13.68 56.624 0.396 8.2 2.63 9.04
10/3/2021 12:00:00 AM 13.6 56.48 0.396 8.19 2.62 9.04
10/3/2021 12:15:00 AM 13.53 56.354 0.396 8.17 2.58 9.03
10/3/2021 12:30:00 AM 13.46 56.228 0.397 8.16 2.62 9.03
10/3/2021 12:45:00 AM 13.41 56.138 0.397 8.15 2.64 9.04
10/3/2021 1:00:00 AM 13.35 56.03 0.397 8.14 2.59 9.03
10/3/2021 1:15:00 AM 13.29 55.922 0.397 8.13 2.89 9.04
10/3/2021 1:30:00 AM 13.23 55.814 0.398 8.12 2.59 9.03
10/3/2021 1:45:00 AM 13.19 55.742 0.398 8.11 2.58 9.03
10/3/2021 2:00:00 AM 13.14 55.652 0.398 8.1 2.67 9.04
10/3/2021 2:15:00 AM 13.09 55.562 0.398 8.1 2.96 9.06
10/3/2021 2:30:00 AM 13.05 55.49 0.398 8.09 2.61 9.05
10/3/2021 2:45:00 AM 13.02 55.436 0.398 8.08 2.59 9.06
10/3/2021 3:00:00 AM 12.98 55.364 0.399 8.08 2.66 9.07
10/3/2021 3:15:00 AM 12.94 55.292 0.398 8.07 2.66 9.06
10/3/2021 3:30:00 AM 12.9 55.22 0.398 8.07 2.59 9.08
10/3/2021 3:45:00 AM 12.87 55.166 0.398 8.07 2.62 9.08
10/3/2021 4:00:00 AM 12.84 55.112 0.398 8.06 2.62 9.08
10/3/2021 4:15:00 AM 12.81 55.058 0.398 8.06 2.96 9.08
10/3/2021 4:30:00 AM 12.77 54.986 0.398 8.06 2.71 9.1
10/3/2021 4:45:00 AM 12.74 54.932 0.398 8.05 2.66 9.1
10/3/2021 5:00:00 AM 12.7 54.86 0.398 8.05 2.69 9.11
10/3/2021 5:15:00 AM 12.67 54.806 0.398 8.05 2.78 9.11
10/3/2021 5:30:00 AM 12.65 54.77 0.398 8.05 2.55 9.11
10/3/2021 5:45:00 AM 12.62 54.716 0.398 8.05 2.61 9.14
10/3/2021 6:00:00 AM 12.6 54.68 0.398 8.04 3.8 9.14
10/3/2021 6:15:00 AM 12.58 54.644 0.399 8.04 2.49 9.14
10/3/2021 6:30:00 AM 12.56 54.608 0.399 8.04 2.55 9.14
10/3/2021 6:45:00 AM 12.54 54.572 0.398 8.04 2.5 9.15
10/3/2021 7:00:00 AM 12.52 54.536 0.398 8.04 3.08 9.14
10/3/2021 7:15:00 AM 12.51 54.518 0.399 8.04 2.74 9.15
10/3/2021 7:30:00 AM 12.5 54.5 0.398 8.04 3.03 9.18
10/3/2021 7:45:00 AM 12.5 54.5 0.398 8.05 2.71 9.24
10/3/2021 8:00:00 AM 12.51 54.518 0.398 8.05 2.57 9.3
10/3/2021 8:15:00 AM 12.52 54.536 0.398 8.06 2.68 9.35
10/3/2021 8:30:00 AM 12.53 54.554 0.398 8.07 2.71 9.47
10/3/2021 8:45:00 AM 12.55 54.59 0.398 8.09 2.61 9.57
10/3/2021 9:00:00 AM 12.58 54.644 0.398 8.11 2.63 9.72
10/3/2021 9:15:00 AM 12.62 54.716 0.397 8.13 2.55 9.92
10/3/2021 9:30:00 AM 12.67 54.806 0.397 8.16 2.57 10.07
10/3/2021 9:45:00 AM 12.71 54.878 0.397 8.18 2.57 10.24
10/3/2021 10:00:00 AM 12.75 54.95 0.396 8.2 2.58 10.37
10/3/2021 10:15:00 AM 12.84 55.112 0.396 8.23 2.63 10.6
10/3/2021 10:30:00 AM 12.96 55.328 0.395 8.28 2.61 10.96
10/3/2021 10:45:00 AM 13.05 55.49 0.394 8.33 2.58 11.24
10/3/2021 11:00:00 AM 13.11 55.598 0.394 8.36 2.62 11.36
10/3/2021 11:15:00 AM 13.16 55.688 0.394 8.37 2.62 11.38
10/3/2021 11:30:00 AM 13.24 55.832 0.393 8.39 2.67 11.46
10/3/2021 11:45:00 AM 13.32 55.976 0.393 8.41 2.66 11.58
10/3/2021 12:00:00 PM 13.41 56.138 0.392 8.44 2.73 11.77
10/3/2021 12:15:00 PM 13.51 56.318 0.391 8.47 2.72 11.84
10/3/2021 12:30:00 PM 13.6 56.48 0.391 8.49 2.71 11.99
10/3/2021 12:45:00 PM 13.69 56.642 0.39 8.51 2.78 12.07
10/3/2021 1:00:00 PM 13.81 56.858 0.391 8.53 2.63 12.2
10/3/2021 1:15:00 PM 13.97 57.146 0.389 8.57 2.62 12.41
10/3/2021 1:30:00 PM 14.08 57.344 0.389 8.59 2.57 12.51
10/3/2021 1:45:00 PM 14.11 57.398 0.389 8.59 2.6 12.36
10/3/2021 2:00:00 PM 14.12 57.416 0.389 8.57 2.82 12.05
10/3/2021 2:15:00 PM 14.13 57.434 0.389 8.55 2.68 11.67
10/3/2021 2:30:00 PM 14.15 57.47 0.388 8.53 2.56 11.45
10/3/2021 2:45:00 PM 14.19 57.542 0.388 8.54 2.48 11.47
10/3/2021 3:00:00 PM 14.22 57.596 0.388 8.55 2.51 11.43
10/3/2021 3:15:00 PM 14.22 57.596 0.389 8.54 2.46 11.23
10/3/2021 3:30:00 PM 14.22 57.596 0.389 8.51 2.49 10.97
10/3/2021 3:45:00 PM 14.22 57.596 0.39 8.49 2.46 10.77
10/3/2021 4:00:00 PM 14.23 57.614 0.39 8.48 2.38 10.73
10/3/2021 4:15:00 PM 14.23 57.614 0.39 8.48 2.72 10.67
10/3/2021 4:30:00 PM 14.22 57.596 0.39 8.47 2.69 10.56
10/3/2021 4:45:00 PM 14.21 57.578 0.39 8.45 2.38 10.42
10/3/2021 5:00:00 PM 14.22 57.596 0.389 8.44 2.45 10.31
10/3/2021 5:15:00 PM 14.22 57.596 0.389 8.43 2.42 10.24
10/3/2021 5:30:00 PM 14.23 57.614 0.389 8.42 2.42 10.15
10/3/2021 5:45:00 PM 14.23 57.614 0.389 8.41 2.53 10.07
10/3/2021 6:00:00 PM 14.22 57.596 0.389 8.4 2.42 9.96
10/3/2021 6:15:00 PM 14.22 57.596 0.389 8.39 2.42 9.84
10/3/2021 6:30:00 PM 14.22 57.596 0.389 8.37 2.46 9.73
10/3/2021 6:45:00 PM 14.22 57.596 0.389 8.35 4.59 9.62
10/3/2021 7:00:00 PM 14.21 57.578 0.39 8.33 4.53 9.53
10/3/2021 7:15:00 PM 14.21 57.578 0.389 8.31 2.57 9.46
10/3/2021 7:30:00 PM 14.2 57.56 0.389 8.29 2.61 9.37
10/3/2021 7:45:00 PM 14.18 57.524 0.39 8.28 2.59 9.31
10/3/2021 8:00:00 PM 14.17 57.506 0.39 8.26 2.63 9.25
10/3/2021 8:15:00 PM 14.16 57.488 0.391 8.24 2.52 9.21
10/3/2021 8:30:00 PM 14.15 57.47 0.391 8.23 2.64 9.15
10/3/2021 8:45:00 PM 14.14 57.452 0.391 8.21 2.66 9.12
10/3/2021 9:00:00 PM 14.13 57.434 0.39 8.2 2.67 9.1
10/3/2021 9:15:00 PM 14.12 57.416 0.39 8.19 2.65 9.08
10/3/2021 9:30:00 PM 14.1 57.38 0.39 8.17 2.62 9.05
10/3/2021 9:45:00 PM 14.09 57.362 0.391 8.16 2.6 9.04
10/3/2021 10:00:00 PM 14.08 57.344 0.391 8.15 2.77 9.02
10/3/2021 10:15:00 PM 14.07 57.326 0.391 8.14 2.67 9
10/3/2021 10:30:00 PM 14.06 57.308 0.39 8.13 2.67 8.99
10/3/2021 10:45:00 PM 14.05 57.29 0.389 8.11 2.77 8.99
10/3/2021 11:00:00 PM 14.04 57.272 0.39 8.1 2.64 8.96
10/3/2021 11:15:00 PM 14.03 57.254 0.389 8.1 2.73 8.95
10/3/2021 11:30:00 PM 14.03 57.254 0.389 8.09 2.86 8.96
10/3/2021 11:45:00 PM 14.03 57.254 0.385 8.08 2.88 8.96
10/4/2021 12:00:00 AM 14.04 57.272 0.381 8.08 3.18 8.97
10/4/2021 12:15:00 AM 14.06 57.308 0.376 8.08 3.63 9
10/4/2021 12:30:00 AM 14.08 57.344 0.37 8.07 3.71 9.03
10/4/2021 12:45:00 AM 14.05 57.29 0.369 8.06 3.97 9.03
10/4/2021 1:00:00 AM 14.04 57.272 0.365 8.05 4.56 9.03
10/4/2021 1:15:00 AM 14.05 57.29 0.358 8.04 5.62 9.02
10/4/2021 1:30:00 AM 14.06 57.308 0.354 8.03 6.38 8.98
10/4/2021 1:45:00 AM 14.06 57.308 0.354 8.01 6.11 8.96
10/4/2021 2:00:00 AM 14.05 57.29 0.356 8.01 5.36 8.94
10/4/2021 2:15:00 AM 14.05 57.29 0.361 8 5.44 8.91
10/4/2021 2:30:00 AM 14.05 57.29 0.364 8 6.41 8.89
10/4/2021 2:45:00 AM 14.07 57.326 0.364 8 6.89 8.89
10/4/2021 3:00:00 AM 14.07 57.326 0.365 8 6.77 8.88
10/4/2021 3:15:00 AM 14.06 57.308 0.366 8 6.02 8.86
10/4/2021 3:30:00 AM 14.05 57.29 0.367 8 5.35 8.82
10/4/2021 3:45:00 AM 14.04 57.272 0.367 7.99 5.08 8.72
10/4/2021 4:00:00 AM 14.03 57.254 0.367 7.99 4.97 8.63
10/4/2021 4:15:00 AM 14.01 57.218 0.367 7.99 4.76 8.63
10/4/2021 4:30:00 AM 14 57.2 0.367 7.98 5 8.71
10/4/2021 4:45:00 AM 13.99 57.182 0.366 7.98 5.16 8.71
10/4/2021 5:00:00 AM 13.99 57.182 0.366 7.98 5.79 8.73
10/4/2021 5:15:00 AM 13.98 57.164 0.365 7.98 6.25 8.79
10/4/2021 5:30:00 AM 13.98 57.164 0.364 7.97 6.56 8.8
10/4/2021 5:45:00 AM 13.97 57.146 0.363 7.97 6.59 8.82
10/4/2021 6:00:00 AM 13.97 57.146 0.362 7.97 6.1 8.48
10/4/2021 6:15:00 AM 13.96 57.128 0.361 7.96 6.1 8.04
10/4/2021 6:30:00 AM 13.96 57.128 0.36 7.96 6.28 8.44
10/4/2021 6:45:00 AM 13.95 57.11 0.359 7.96 7.62 8.86
10/4/2021 7:00:00 AM 13.95 57.11 0.358 7.96 5.95 8.87
10/4/2021 7:15:00 AM 13.95 57.11 0.357 7.97 5.86 8.88
10/4/2021 7:30:00 AM 13.95 57.11 0.356 7.97 5.62 8.89
10/4/2021 7:45:00 AM 13.94 57.092 0.354 7.97 5.72 8.9
10/4/2021 8:00:00 AM 13.94 57.092 0.351 7.97 5.81 8.92
10/4/2021 8:15:00 AM 13.94 57.092 0.348 7.97 5.45 8.94
10/4/2021 8:30:00 AM 13.95 57.11 0.346 7.97 5.49 9.01
10/4/2021 8:45:00 AM 13.95 57.11 0.344 7.97 6.95 9.02
10/4/2021 9:00:00 AM 13.96 57.128 0.343 7.98 4.89 9.1
10/4/2021 9:15:00 AM 13.96 57.128 0.343 7.99 4.95 9.13
10/4/2021 9:30:00 AM 13.96 57.128 0.343 7.99 4.73 9.15
10/4/2021 9:45:00 AM 13.97 57.146 0.343 7.99 5.37 9.18
10/4/2021 10:00:00 AM 13.98 57.164 0.343 8 4.4 9.22
10/4/2021 10:15:00 AM 14 57.2 0.344 8.01 4.42 9.3
10/4/2021 10:30:00 AM 14.02 57.236 0.344 8.03 4.58 9.4
10/4/2021 10:45:00 AM 14.06 57.308 0.345 8.05 4.35 9.52
10/4/2021 11:00:00 AM 14.09 57.362 0.346 8.06 4.15 9.63
10/4/2021 11:15:00 AM 14.12 57.416 0.346 8.08 4.05 9.72
10/4/2021 11:30:00 AM 14.16 57.488 0.347 8.09 3.97 9.8
10/4/2021 11:45:00 AM 14.19 57.542 0.348 8.11 3.82 9.86
10/4/2021 12:00:00 PM 14.22 57.596 0.348 8.12 4.09 9.92
10/4/2021 12:15:00 PM 14.25 57.65 0.349 8.13 3.84 9.89
10/4/2021 12:30:00 PM 14.27 57.686 0.35 8.14 3.83 9.94
10/4/2021 12:45:00 PM 14.29 57.722 0.351 8.14 3.78 9.94
10/4/2021 1:00:00 PM 14.3 57.74 0.351 8.14 3.55 9.9
10/4/2021 1:15:00 PM 14.31 57.758 0.352 8.14 3.59 9.83
10/4/2021 1:30:00 PM 14.33 57.794 0.353 8.14 3.65 9.84
10/4/2021 1:45:00 PM 14.34 57.812 0.353 8.15 3.5 9.85
10/4/2021 2:00:00 PM 14.36 57.848 0.353 8.15 3.51 9.88
10/4/2021 2:15:00 PM 14.38 57.884 0.354 8.16 3.29 9.86
10/4/2021 2:30:00 PM 14.41 57.938 0.354 8.17 3.54 9.95
10/4/2021 2:45:00 PM 14.44 57.992 0.354 8.19 3.48 10.03
10/4/2021 3:00:00 PM 14.46 58.028 0.354 8.19 3.4 10
10/4/2021 3:15:00 PM 14.48 58.064 0.355 8.2 3.48 10.02
10/4/2021 3:30:00 PM 14.49 58.082 0.355 8.2 3.38 9.98
10/4/2021 3:45:00 PM 14.49 58.082 0.355 8.19 3.63 9.89
10/4/2021 4:00:00 PM 14.49 58.082 0.355 8.18 3.48 9.82
10/4/2021 4:15:00 PM 14.49 58.082 0.355 8.18 3.53 9.79
10/4/2021 4:30:00 PM 14.49 58.082 0.355 8.17 3.61 9.76
10/4/2021 4:45:00 PM 14.49 58.082 0.355 8.17 3.48 9.69
10/4/2021 5:00:00 PM 14.48 58.064 0.356 8.16 3.9 9.63
10/4/2021 5:15:00 PM 14.48 58.064 0.353 8.15 3.63 9.58
10/4/2021 5:30:00 PM 14.48 58.064 0.35 8.14 3.93 9.53
10/4/2021 5:45:00 PM 14.48 58.064 0.349 8.13 3.94 9.47
10/4/2021 6:00:00 PM 14.48 58.064 0.348 8.13 4.56 9.42
10/4/2021 6:15:00 PM 14.47 58.046 0.347 8.12 4.31 9.38
10/4/2021 6:30:00 PM 14.46 58.028 0.346 8.11 4.95 9.34
10/4/2021 6:45:00 PM 14.45 58.01 0.346 8.09 5.32 9.3
10/4/2021 7:00:00 PM 14.44 57.992 0.346 8.08 7.09 9.25
10/4/2021 7:15:00 PM 14.43 57.974 0.347 8.07 6.09 9.25
10/4/2021 7:30:00 PM 14.41 57.938 0.348 8.06 8.08 9.23
10/4/2021 7:45:00 PM 14.4 57.92 0.348 8.05 7.4 9.2
10/4/2021 8:00:00 PM 14.39 57.902 0.347 8.05 8.67 9.18
10/4/2021 8:15:00 PM 14.37 57.866 0.346 8.04 8.69 9.16
10/4/2021 8:30:00 PM 14.36 57.848 0.344 8.03 8.89 9.16
10/4/2021 8:45:00 PM 14.34 57.812 0.341 8.02 10.64 9.15
10/4/2021 9:00:00 PM 14.33 57.794 0.337 8.01 12.46 9.12
10/4/2021 9:15:00 PM 14.32 57.776 0.333 7.99 14.46 9.12
10/4/2021 9:30:00 PM 14.31 57.758 0.328 7.98 14.63 9.1
10/4/2021 9:45:00 PM 14.3 57.74 0.324 7.96 23.66 9.09
10/4/2021 10:00:00 PM 14.29 57.722 0.321 7.95 16.3 9.06
10/4/2021 10:15:00 PM 14.28 57.704 0.318 7.94 23.49 9.03
10/4/2021 10:30:00 PM 14.28 57.704 0.315 7.93 28 9.03
10/4/2021 10:45:00 PM 14.27 57.686 0.312 7.91 27.15 9.02
10/4/2021 11:00:00 PM 14.26 57.668 0.308 7.9 38.47 9.01
10/4/2021 11:15:00 PM 14.25 57.65 0.304 7.88 30.71 9
10/4/2021 11:30:00 PM 14.24 57.632 0.299 7.87 33.22 8.99
10/4/2021 11:45:00 PM 14.23 57.614 0.294 7.86 43.57 8.99
10/5/2021 12:00:00 AM 14.22 57.596 0.288 7.85 52.22 8.99
10/5/2021 12:15:00 AM 14.21 57.578 0.282 7.84 45.68 8.98
10/5/2021 12:30:00 AM 14.2 57.56 0.279 7.83 48.46 8.99
10/5/2021 12:45:00 AM 14.2 57.56 0.277 7.82 47.73 8.99
10/5/2021 1:00:00 AM 14.19 57.542 0.274 7.81 46.8 8.98
10/5/2021 1:15:00 AM 14.19 57.542 0.271 7.8 40.6 8.98
10/5/2021 1:30:00 AM 14.18 57.524 0.269 7.8 48.04 8.99
10/5/2021 1:45:00 AM 14.18 57.524 0.267 7.79 38.13 8.98
10/5/2021 2:00:00 AM 14.17 57.506 0.265 7.8 40.36 8.99
10/5/2021 2:15:00 AM 14.16 57.488 0.263 7.79 39.59 8.99
10/5/2021 2:30:00 AM 14.16 57.488 0.261 7.77 37.7 8.99
10/5/2021 2:45:00 AM 14.16 57.488 0.259 7.76 35.26 8.98
10/5/2021 3:00:00 AM 14.15 57.47 0.258 7.76 34.26 8.99
10/5/2021 3:15:00 AM 14.15 57.47 0.257 7.74 45.1 8.98
10/5/2021 3:30:00 AM 14.15 57.47 0.256 7.75 37.33 8.98
10/5/2021 3:45:00 AM 14.14 57.452 0.255 7.74 54.79 8.97
10/5/2021 4:00:00 AM 14.14 57.452 0.255 7.75 37.6 8.97
10/5/2021 4:15:00 AM 14.13 57.434 0.254 7.74 33.32 8.97
10/5/2021 4:30:00 AM 14.13 57.434 0.254 7.75 33.98 8.97
10/5/2021 4:45:00 AM 14.13 57.434 0.253 7.75 27.84 8.97
10/5/2021 5:00:00 AM 14.12 57.416 0.253 7.74 34.52 8.98
10/5/2021 5:15:00 AM 14.12 57.416 0.253 7.75 28.99 8.98
10/5/2021 5:30:00 AM 14.12 57.416 0.253 7.75 28.38 8.98
10/5/2021 5:45:00 AM 14.12 57.416 0.252 7.74 26.17 8.98
10/5/2021 6:00:00 AM 14.12 57.416 0.252 7.74 26.4 8.97
10/5/2021 6:15:00 AM 14.11 57.398 0.252 7.74 24.52 8.97
10/5/2021 6:30:00 AM 14.11 57.398 0.252 7.75 25.28 8.97
10/5/2021 6:45:00 AM 14.11 57.398 0.252 7.74 46.55 8.97
10/5/2021 7:00:00 AM 14.11 57.398 0.252 7.74 24.71 8.97
10/5/2021 7:15:00 AM 14.11 57.398 0.252 7.75 23.18 8.97
10/5/2021 7:30:00 AM 14.11 57.398 0.252 7.75 28.3 8.98
10/5/2021 7:45:00 AM 14.11 57.398 0.253 7.75 20.64 8.98
10/5/2021 8:00:00 AM 14.11 57.398 0.253 7.74 24.89 8.98
10/5/2021 8:15:00 AM 14.12 57.416 0.253 7.75 20 8.99
10/5/2021 8:30:00 AM 14.13 57.434 0.254 7.76 19.32 9.01
10/5/2021 8:45:00 AM 14.14 57.452 0.254 7.76 18.91 9.02
10/5/2021 9:00:00 AM 14.15 57.47 0.255 7.77 20.68 9.04
10/5/2021 9:15:00 AM 14.17 57.506 0.255 7.77 19.83 9.06
10/5/2021 9:30:00 AM 14.19 57.542 0.256 7.78 19.29 9.09
10/5/2021 9:45:00 AM 14.22 57.596 0.257 7.78 19.84 9.11
10/5/2021 10:00:00 AM 14.23 57.614 0.257 7.77 15.01 9.12

These are provisional data and have not been subject to a quality assurance process, but rather are the raw data reported by the instrument.
H: value is above sensor operating range
L: value is below sensor operating range
Offline: station is not reporting data
NC: parameter is not collected at site

Data Availability & Limitations

Uncertainty and potential for error can be associated with environmental monitoring data. Provisional data have not been subject to a quality assurance process, but rather are the raw data reported by the instrument. Data users are cautioned to consider carefully the provisional nature of the information before using it for decisions that concern personal or public safety or the conduct of business that involves substantial monetary or operational consequences.

Approved data are currently available by request by emailing: srbc@srbc.net. Approved data have been subject to a quality assurance process to correct for equipment or fouling drift. Data recorded during equipment malfunctions have been removed.

View Historical Stations that have been discontinued.